Time;durP1;ratioP1;P1;durP2;ratioP2;P2;SDS_P1;SDS_P2;PMS_P1;PMS_P2;Temp;Humidity;BMP_temperature;BMP_pressure;BME280_temperature;BME280_humidity;BME280_pressure;Samples;Min_cycle;Max_cycle;Signal;HPM_P1;HPM_P2
2022/02/13 00:02:13;;;;;;;14.95;9.15;;;4.10;94.10;;;;;;5000062;28;20064;-65
2022/02/13 00:04:39;;;;;;;15.70;9.50;;;4.10;94.10;;;;;;5000102;28;20034;-65
2022/02/13 00:07:04;;;;;;;14.88;9.02;;;4.10;94.20;;;;;;5010985;28;20041;-65
2022/02/13 00:09:31;;;;;;;16.55;9.05;;;4.10;94.10;;;;;;4995721;28;20537;-65
2022/02/13 00:12:00;;;;;;;14.38;10.02;;;4.10;94.20;;;;;;5011481;28;20034;-65
2022/02/13 00:14:26;;;;;;;16.52;9.60;;;4.10;94.10;;;;;;4998379;28;20084;-65
2022/02/13 00:16:52;;;;;;;16.38;9.65;;;4.10;94.20;;;;;;5011023;28;20030;-65
2022/02/13 00:19:17;;;;;;;18.73;10.25;;;4.10;94.20;;;;;;4998966;28;20068;-65
2022/02/13 00:21:43;;;;;;;17.60;10.23;;;4.10;94.10;;;;;;5003849;28;20058;-65
2022/02/13 00:24:09;;;;;;;14.23;8.95;;;4.20;94.10;;;;;;5008546;28;20034;-65
2022/02/13 00:26:36;;;;;;;15.30;9.05;;;4.20;94.10;;;;;;5013425;28;20045;-65
2022/02/13 00:29:01;;;;;;;16.30;8.95;;;4.30;94.00;;;;;;5010606;28;20465;-65
2022/02/13 00:31:27;;;;;;;13.45;8.63;;;4.20;93.90;;;;;;5012180;28;20088;-65
2022/02/13 00:33:52;;;;;;;15.48;10.10;;;4.20;93.90;;;;;;5006151;28;20030;-64
2022/02/13 00:36:18;;;;;;;20.63;10.20;;;4.20;93.80;;;;;;5010661;28;20034;-65
2022/02/13 00:38:43;;;;;;;14.65;8.32;;;4.20;93.80;;;;;;5010037;28;20033;-65
2022/02/13 00:41:08;;;;;;;15.88;8.75;;;4.20;93.80;;;;;;5011793;28;20045;-65
2022/02/13 00:43:34;;;;;;;13.40;8.75;;;4.20;93.80;;;;;;5011414;28;20137;-65
2022/02/13 00:45:59;;;;;;;16.38;9.48;;;4.10;93.70;;;;;;5009033;28;20477;-65
2022/02/13 00:48:25;;;;;;;14.00;8.68;;;4.20;93.70;;;;;;4999621;28;20053;-65
2022/02/13 00:50:50;;;;;;;17.40;10.02;;;4.10;93.70;;;;;;5003023;28;20084;-65
2022/02/13 00:53:16;;;;;;;16.60;9.98;;;4.10;93.90;;;;;;4993945;28;20030;-65
2022/02/13 00:55:41;;;;;;;15.93;9.13;;;4.10;93.70;;;;;;5004640;28;20021;-65
2022/02/13 00:58:07;;;;;;;13.27;8.90;;;4.10;93.70;;;;;;5002649;28;20034;-65
2022/02/13 01:00:32;;;;;;;14.90;8.43;;;4.00;93.70;;;;;;5001329;28;20042;-65
2022/02/13 01:02:58;;;;;;;17.30;8.55;;;4.00;93.70;;;;;;5001619;28;20085;-65
2022/02/13 01:05:23;;;;;;;15.88;8.65;;;4.00;93.70;;;;;;4993328;28;20520;-65
2022/02/13 01:07:49;;;;;;;13.80;8.38;;;4.00;93.70;;;;;;4993611;28;20122;-65
2022/02/13 01:10:14;;;;;;;13.00;8.32;;;4.00;93.60;;;;;;4993557;28;20031;-65
2022/02/13 01:12:40;;;;;;;12.40;7.97;;;4.00;93.60;;;;;;5005320;28;20036;-65
2022/02/13 01:15:05;;;;;;;11.85;7.60;;;4.00;93.60;;;;;;4993506;28;20033;-65
2022/02/13 01:17:31;;;;;;;14.23;8.70;;;4.00;93.60;;;;;;5000658;28;20109;-65
2022/02/13 01:19:56;;;;;;;15.63;9.00;;;4.00;93.60;;;;;;5012642;28;20022;-65
2022/02/13 01:22:22;;;;;;;16.73;8.75;;;4.00;93.60;;;;;;5006580;28;20022;-65
2022/02/13 01:24:48;;;;;;;15.23;9.65;;;4.00;93.60;;;;;;4992827;28;20030;-65
2022/02/13 01:27:13;;;;;;;12.70;8.23;;;4.00;93.60;;;;;;4999838;28;20033;-65
2022/02/13 01:29:39;;;;;;;12.63;8.30;;;4.00;93.60;;;;;;4993331;28;20033;-65
2022/02/13 01:32:04;;;;;;;12.63;8.05;;;4.00;93.60;;;;;;4998819;28;20053;-65
2022/02/13 01:34:30;;;;;;;13.82;7.70;;;4.00;93.60;;;;;;4992832;28;20088;-65
2022/02/13 01:36:55;;;;;;;10.85;8.07;;;4.00;93.60;;;;;;5002936;28;20026;-65
2022/02/13 01:39:21;;;;;;;11.65;8.35;;;4.00;93.60;;;;;;5011061;28;20036;-65
2022/02/13 01:41:49;;;;;;;15.13;8.60;;;4.00;93.50;;;;;;5001602;28;20099;-65
2022/02/13 01:44:25;;;;;;;18.30;9.63;;;4.00;93.50;;;;;;5010382;28;20050;-65
2022/02/13 01:46:51;;;;;;;15.25;8.60;;;3.90;93.50;;;;;;5005672;28;20547;-65
2022/02/13 01:49:18;;;;;;;14.85;9.02;;;3.90;93.50;;;;;;5011090;28;20030;-65
2022/02/13 01:51:44;;;;;;;13.02;8.52;;;3.90;93.50;;;;;;5008268;28;20030;-65
2022/02/13 01:54:10;;;;;;;12.70;8.88;;;3.90;93.50;;;;;;5006240;28;20066;-65
2022/02/13 01:56:36;;;;;;;13.52;8.20;;;3.90;93.70;;;;;;4991735;28;20043;-65
2022/02/13 01:59:01;;;;;;;15.95;8.48;;;3.90;93.50;;;;;;5009031;28;20492;-64
2022/02/13 02:01:27;;;;;;;14.25;8.48;;;3.90;93.40;;;;;;5008099;28;20065;-65
2022/02/13 02:03:53;;;;;;;18.38;9.55;;;3.80;93.40;;;;;;4998837;28;20037;-65
2022/02/13 02:06:18;;;;;;;14.95;8.85;;;3.80;93.40;;;;;;5011670;28;20487;-65
2022/02/13 02:08:44;;;;;;;15.98;9.75;;;3.80;93.50;;;;;;5007237;28;20029;-65
2022/02/13 02:11:09;;;;;;;11.60;7.80;;;3.80;93.50;;;;;;5012131;28;20060;-66
2022/02/13 02:13:35;;;;;;;13.80;8.57;;;3.80;93.50;;;;;;5006707;28;20022;-65
2022/02/13 02:16:01;;;;;;;14.48;8.50;;;3.80;93.50;;;;;;5011356;28;20080;-66
2022/02/13 02:18:26;;;;;;;16.02;8.75;;;3.80;93.50;;;;;;5009492;28;20029;-66
2022/02/13 02:20:54;;;;;;;13.27;8.77;;;3.80;93.50;;;;;;5010971;28;20084;-66
2022/02/13 02:23:20;;;;;;;12.90;8.77;;;3.70;93.50;;;;;;4997219;28;20038;-66
2022/02/13 02:25:45;;;;;;;13.52;8.48;;;3.70;93.50;;;;;;4992121;28;20580;-66
2022/02/13 02:28:11;;;;;;;14.60;8.75;;;3.70;93.50;;;;;;4998808;28;20030;-66
2022/02/13 02:30:37;;;;;;;13.45;8.48;;;3.70;93.50;;;;;;5008887;28;20037;-66
2022/02/13 02:33:02;;;;;;;13.15;8.30;;;3.70;93.50;;;;;;5005505;28;20030;-66
2022/02/13 02:35:30;;;;;;;12.20;8.32;;;3.70;93.50;;;;;;5008245;28;20033;-66
2022/02/13 02:37:55;;;;;;;14.90;8.50;;;3.70;93.60;;;;;;5000415;28;20061;-66
2022/02/13 02:40:21;;;;;;;15.80;8.32;;;3.70;93.60;;;;;;5008129;28;20060;-66
2022/02/13 02:42:47;;;;;;;15.35;9.77;;;3.70;93.50;;;;;;5006758;28;20095;-66
2022/02/13 02:45:14;;;;;;;15.05;8.85;;;3.60;93.50;;;;;;4992483;28;20077;-65
2022/02/13 02:47:41;;;;;;;15.85;9.05;;;3.60;93.60;;;;;;4994863;28;20034;-65
2022/02/13 02:50:07;;;;;;;14.23;9.05;;;3.60;93.60;;;;;;5000465;28;20677;-65
2022/02/13 02:52:33;;;;;;;14.55;8.38;;;3.60;93.60;;;;;;5005952;28;20022;-65
2022/02/13 02:54:59;;;;;;;17.17;9.40;;;3.50;93.60;;;;;;4994957;28;20041;-65
2022/02/13 02:57:26;;;;;;;15.20;9.10;;;3.60;93.60;;;;;;5011081;28;20025;-65
2022/02/13 02:59:51;;;;;;;14.90;8.32;;;3.60;93.60;;;;;;5005677;28;20026;-66
2022/02/13 03:02:17;;;;;;;16.27;9.25;;;3.60;93.70;;;;;;5009577;28;20088;-66
2022/02/13 03:04:42;;;;;;;17.45;8.90;;;3.60;93.60;;;;;;4991440;28;20121;-66
2022/02/13 03:07:08;;;;;;;13.57;9.60;;;3.60;93.60;;;;;;5006971;28;20077;-65
2022/02/13 03:09:33;;;;;;;12.25;8.18;;;3.60;93.60;;;;;;5013043;28;20417;-66
2022/02/13 03:11:59;;;;;;;13.40;8.48;;;3.60;93.60;;;;;;5012295;28;20021;-66
2022/02/13 03:14:25;;;;;;;13.57;8.77;;;3.60;93.70;;;;;;5012288;28;20060;-65
2022/02/13 03:16:51;;;;;;;12.15;8.55;;;3.60;93.90;;;;;;4997950;28;20081;-66
2022/02/13 03:19:16;;;;;;;16.25;8.65;;;3.50;93.60;;;;;;4995296;28;20557;-66
2022/02/13 03:21:42;;;;;;;16.13;9.15;;;3.50;93.70;;;;;;4994836;28;20019;-65
2022/02/13 03:24:09;;;;;;;14.23;8.52;;;3.50;93.70;;;;;;4995633;28;20027;-66
2022/02/13 03:26:35;;;;;;;13.95;8.95;;;3.50;93.70;;;;;;4995669;28;20367;-66
2022/02/13 03:29:01;;;;;;;13.43;8.60;;;3.50;93.70;;;;;;4995409;28;20079;-66
2022/02/13 03:31:27;;;;;;;13.55;8.45;;;3.60;93.70;;;;;;4997955;28;20042;-65
2022/02/13 03:33:52;;;;;;;13.20;8.45;;;3.50;93.70;;;;;;4997209;28;20041;-66
2022/02/13 03:36:19;;;;;;;14.73;8.35;;;3.50;93.70;;;;;;4993794;28;20575;-66
2022/02/13 03:38:45;;;;;;;11.75;7.97;;;3.50;93.70;;;;;;4995158;28;20038;-64
2022/02/13 03:41:11;;;;;;;14.80;7.93;;;3.50;93.70;;;;;;4995239;28;20466;-65
2022/02/13 03:43:36;;;;;;;17.40;9.65;;;3.50;93.70;;;;;;4995090;28;20042;-65
2022/02/13 03:46:02;;;;;;;14.63;8.95;;;3.50;93.70;;;;;;4995466;28;20500;-65
2022/02/13 03:48:27;;;;;;;13.15;9.70;;;3.50;93.70;;;;;;5005564;28;20042;-66
2022/02/13 03:50:53;;;;;;;13.77;8.85;;;3.50;93.70;;;;;;5001626;28;20021;-66
2022/02/13 03:53:18;;;;;;;14.82;8.27;;;3.50;93.70;;;;;;5007114;28;20445;-66
2022/02/13 03:55:43;;;;;;;16.60;10.23;;;3.50;93.70;;;;;;4995329;28;20065;-65
2022/02/13 03:58:09;;;;;;;14.23;8.82;;;3.50;93.70;;;;;;4995043;28;20117;-65
2022/02/13 04:00:34;;;;;;;14.95;8.45;;;3.50;93.70;;;;;;4998186;28;20037;-65
2022/02/13 04:03:01;;;;;;;13.48;8.65;;;3.50;93.70;;;;;;5003514;28;20034;-66
2022/02/13 04:05:26;;;;;;;14.10;8.57;;;3.50;93.70;;;;;;4997810;28;20576;-66
2022/02/13 04:07:52;;;;;;;15.93;8.45;;;3.50;93.70;;;;;;5006721;28;20105;-66
2022/02/13 04:10:18;;;;;;;15.40;8.70;;;3.40;93.70;;;;;;4997114;28;20037;-65
2022/02/13 04:12:43;;;;;;;14.07;9.00;;;3.40;93.70;;;;;;5009115;28;20018;-65
2022/02/13 04:15:11;;;;;;;15.70;8.82;;;3.50;93.70;;;;;;4995784;28;20509;-65
2022/02/13 04:17:36;;;;;;;14.65;8.75;;;3.50;93.70;;;;;;5009284;28;20050;-65
2022/02/13 04:20:04;;;;;;;12.88;8.45;;;3.50;93.60;;;;;;4992792;28;20062;-65
2022/02/13 04:22:29;;;;;;;13.40;8.45;;;3.40;93.60;;;;;;5010688;28;20035;-65
2022/02/13 04:24:55;;;;;;;16.63;9.32;;;3.50;93.70;;;;;;4994162;28;20093;-65
2022/02/13 04:27:21;;;;;;;13.23;9.32;;;3.40;93.70;;;;;;4997642;28;20093;-65
2022/02/13 04:29:46;;;;;;;13.88;8.65;;;3.40;93.70;;;;;;4994090;28;20029;-65
2022/02/13 04:32:12;;;;;;;15.65;9.32;;;3.40;93.70;;;;;;5009586;28;20026;-65
2022/02/13 04:34:37;;;;;;;13.85;8.20;;;3.40;93.70;;;;;;5009760;28;20037;-65
2022/02/13 04:37:03;;;;;;;11.88;7.90;;;3.30;93.70;;;;;;4995714;28;20547;-65
2022/02/13 04:39:28;;;;;;;16.30;9.20;;;3.30;93.70;;;;;;4993786;28;20402;-65
2022/02/13 04:41:54;;;;;;;16.17;9.10;;;3.30;93.70;;;;;;5009142;28;20390;-65
2022/02/13 04:44:19;;;;;;;13.15;8.18;;;3.30;93.80;;;;;;4997273;28;20039;-65
2022/02/13 04:46:45;;;;;;;14.27;8.88;;;3.30;93.80;;;;;;5000085;28;20109;-65
2022/02/13 04:49:10;;;;;;;12.85;8.45;;;3.30;93.70;;;;;;4990923;28;20034;-65
2022/02/13 04:51:36;;;;;;;12.70;8.18;;;3.30;93.70;;;;;;5006251;28;20026;-65
2022/02/13 04:54:02;;;;;;;13.95;8.52;;;3.30;93.70;;;;;;4995292;28;20037;-65
2022/02/13 04:56:27;;;;;;;13.95;8.50;;;3.30;93.80;;;;;;5005243;28;20477;-65
2022/02/13 04:58:53;;;;;;;15.10;9.02;;;3.30;93.80;;;;;;4996890;28;20038;-65
2022/02/13 05:01:18;;;;;;;17.10;9.10;;;3.30;93.80;;;;;;5003989;28;20034;-65
2022/02/13 05:03:44;;;;;;;16.00;8.98;;;3.40;93.80;;;;;;4993836;28;20030;-65
2022/02/13 05:06:09;;;;;;;16.42;9.35;;;3.30;93.80;;;;;;5003020;28;20037;-65
2022/02/13 05:08:35;;;;;;;16.80;9.90;;;3.30;93.80;;;;;;5011407;28;20025;-65
2022/02/13 05:11:00;;;;;;;15.00;9.10;;;3.30;93.80;;;;;;5003432;28;20065;-66
2022/02/13 05:13:26;;;;;;;14.18;8.73;;;3.30;93.80;;;;;;5003935;28;20041;-66
2022/02/13 05:15:51;;;;;;;13.52;8.82;;;3.30;93.80;;;;;;5003918;28;20204;-66
2022/02/13 05:18:16;;;;;;;15.30;9.13;;;3.30;93.80;;;;;;4992146;28;20120;-66
2022/02/13 05:20:42;;;;;;;14.60;9.35;;;3.30;93.80;;;;;;4992804;28;20385;-66
2022/02/13 05:23:07;;;;;;;14.88;8.88;;;3.20;93.80;;;;;;4993476;28;20085;-66
2022/02/13 05:25:33;;;;;;;15.90;9.55;;;3.20;93.80;;;;;;4996961;28;19925;-66
2022/02/13 05:27:58;;;;;;;15.95;8.88;;;3.30;93.90;;;;;;4998876;28;20030;-66
2022/02/13 05:30:24;;;;;;;15.43;8.90;;;3.20;93.90;;;;;;5011244;28;20037;-66
2022/02/13 05:32:49;;;;;;;15.52;10.05;;;3.30;93.80;;;;;;5008061;28;20145;-66
2022/02/13 05:35:15;;;;;;;15.55;9.07;;;3.20;93.80;;;;;;4999846;28;20037;-65
2022/02/13 05:37:41;;;;;;;14.40;9.68;;;3.20;93.80;;;;;;4993557;28;20022;-66
2022/02/13 05:40:08;;;;;;;14.45;8.15;;;3.30;93.90;;;;;;4993808;28;20113;-66
2022/02/13 05:42:35;;;;;;;15.52;9.30;;;3.20;93.90;;;;;;5006127;28;20117;-66
2022/02/13 05:45:00;;;;;;;14.00;8.98;;;3.20;93.90;;;;;;4992587;28;20416;-65
2022/02/13 05:47:26;;;;;;;15.40;9.32;;;3.10;93.90;;;;;;4992540;28;20022;-66
2022/02/13 05:49:51;;;;;;;14.60;9.23;;;3.10;93.90;;;;;;4992337;28;20030;-65
2022/02/13 05:52:17;;;;;;;17.10;9.07;;;3.10;93.90;;;;;;5008029;28;20018;-65
2022/02/13 05:54:42;;;;;;;14.13;9.15;;;3.10;93.90;;;;;;4992487;28;20026;-65
2022/02/13 05:57:08;;;;;;;14.15;8.45;;;3.10;93.90;;;;;;5008996;28;20036;-65
2022/02/13 05:59:33;;;;;;;14.25;9.07;;;3.10;94.00;;;;;;5000822;28;20061;-65
2022/02/13 06:01:59;;;;;;;13.45;8.52;;;3.10;94.00;;;;;;4994233;28;20512;-65
2022/02/13 06:04:25;;;;;;;18.88;9.88;;;3.10;94.00;;;;;;4992256;28;20447;-65
2022/02/13 06:06:52;;;;;;;14.20;9.18;;;3.00;94.00;;;;;;4992352;28;20030;-65
2022/02/13 06:09:19;;;;;;;12.90;8.57;;;3.00;94.00;;;;;;4992229;28;20092;-65
2022/02/13 06:11:45;;;;;;;14.57;8.55;;;3.00;94.00;;;;;;5006332;28;20026;-66
2022/02/13 06:14:11;;;;;;;13.48;8.43;;;3.00;94.00;;;;;;4996056;28;20133;-65
2022/02/13 06:16:37;;;;;;;16.10;9.75;;;3.00;94.00;;;;;;5005242;28;20377;-65
2022/02/13 06:19:03;;;;;;;19.13;10.05;;;3.00;94.00;;;;;;5011861;28;20042;-65
2022/02/13 06:21:28;;;;;;;14.40;8.77;;;3.00;94.00;;;;;;4998145;28;20117;-65
2022/02/13 06:23:54;;;;;;;14.98;8.40;;;2.90;94.00;;;;;;4992117;28;20038;-65
2022/02/13 06:26:20;;;;;;;16.23;9.55;;;2.90;94.10;;;;;;4991912;28;20492;-65
2022/02/13 06:28:45;;;;;;;14.52;8.85;;;2.90;94.10;;;;;;5000126;28;20025;-65
2022/02/13 06:31:12;;;;;;;16.52;9.45;;;2.90;94.10;;;;;;5000292;28;20031;-65
2022/02/13 06:33:38;;;;;;;15.40;9.13;;;2.90;94.10;;;;;;4992190;28;20070;-65
2022/02/13 06:36:03;;;;;;;11.80;8.35;;;2.90;94.20;;;;;;5000645;28;20050;-65
2022/02/13 06:38:29;;;;;;;16.15;8.95;;;2.90;94.20;;;;;;4998345;28;20030;-65
2022/02/13 06:40:54;;;;;;;14.45;8.68;;;2.90;94.20;;;;;;4999359;28;20065;-65
2022/02/13 06:43:20;;;;;;;13.25;8.63;;;3.00;94.20;;;;;;5000793;28;20045;-65
2022/02/13 06:45:46;;;;;;;16.92;8.85;;;3.00;94.20;;;;;;5001701;28;20052;-65
2022/02/13 06:48:11;;;;;;;15.98;9.40;;;2.90;94.20;;;;;;5006003;28;20418;-66
2022/02/13 06:50:37;;;;;;;15.27;9.38;;;3.00;94.20;;;;;;5003900;28;20022;-66
2022/02/13 06:53:03;;;;;;;15.63;9.55;;;3.00;94.20;;;;;;5004104;28;20061;-66
2022/02/13 06:55:29;;;;;;;14.27;8.57;;;3.00;94.20;;;;;;5013500;28;20034;-65
2022/02/13 06:57:54;;;;;;;16.25;7.63;;;3.00;94.20;;;;;;5009148;28;20025;-65
2022/02/13 07:00:21;;;;;;;14.93;9.15;;;3.00;94.30;;;;;;4997696;28;20037;-66
2022/02/13 07:02:47;;;;;;;13.45;8.27;;;3.00;94.20;;;;;;5010560;28;20356;-67
2022/02/13 07:05:12;;;;;;;16.35;8.55;;;3.10;94.30;;;;;;4995410;28;20088;-66
2022/02/13 07:07:38;;;;;;;12.60;7.88;;;3.10;94.30;;;;;;4995780;28;20030;-65
2022/02/13 07:10:09;;;;;;;12.20;7.85;;;3.10;94.30;;;;;;4995634;28;20125;-65
2022/02/13 07:12:35;;;;;;;13.43;8.98;;;3.10;94.30;;;;;;5012640;28;20026;-65
2022/02/13 07:15:01;;;;;;;13.07;8.95;;;3.20;94.30;;;;;;4995284;28;20080;-65
2022/02/13 07:17:26;;;;;;;14.30;8.77;;;3.20;94.30;;;;;;5000703;28;20049;-66
2022/02/13 07:19:52;;;;;;;13.13;8.95;;;3.20;94.30;;;;;;4998917;28;20031;-64
2022/02/13 07:22:18;;;;;;;13.02;8.13;;;3.20;94.30;;;;;;4996113;28;20120;-64
2022/02/13 07:24:43;;;;;;;13.52;9.10;;;3.20;94.30;;;;;;4994970;28;20042;-63
2022/02/13 07:27:09;;;;;;;13.27;9.30;;;3.30;94.30;;;;;;5001227;28;20119;-64
2022/02/13 07:29:35;;;;;;;14.48;8.07;;;3.30;94.30;;;;;;4995269;28;20157;-64
2022/02/13 07:32:01;;;;;;;12.48;8.52;;;3.30;94.30;;;;;;4997557;28;20489;-63
2022/02/13 07:34:26;;;;;;;10.70;8.10;;;3.40;94.30;;;;;;5005243;28;20033;-63
2022/02/13 07:37:01;;;;;;;12.95;8.00;;;3.40;94.20;;;;;;5004348;28;20018;-62
2022/02/13 07:39:35;;;;;;;13.45;8.10;;;3.40;94.20;;;;;;4994180;28;20027;-63
2022/02/13 07:42:00;;;;;;;13.75;8.68;;;3.40;94.20;;;;;;5005466;28;20042;-62
2022/02/13 07:44:27;;;;;;;16.35;8.20;;;3.40;94.20;;;;;;4994445;28;20034;-62
2022/02/13 07:46:53;;;;;;;12.27;7.90;;;3.40;94.20;;;;;;5008352;28;20061;-62
2022/02/13 07:49:19;;;;;;;12.77;7.75;;;3.50;94.20;;;;;;4994367;28;20061;-62
2022/02/13 07:51:45;;;;;;;12.35;8.32;;;3.50;94.20;;;;;;5005963;28;20041;-61
2022/02/13 07:54:11;;;;;;;22.48;7.55;;;3.50;94.20;;;;;;4999136;28;20038;-62
2022/02/13 07:56:37;;;;;;;13.77;7.93;;;3.50;94.20;;;;;;5001819;28;20030;-62
2022/02/13 07:59:03;;;;;;;12.43;8.38;;;3.50;94.20;;;;;;4997542;28;20042;-62
2022/02/13 08:01:28;;;;;;;14.32;9.57;;;3.60;94.20;;;;;;4993444;28;20113;-62
2022/02/13 08:03:54;;;;;;;11.48;7.43;;;3.60;94.20;;;;;;5002654;28;20046;-62
2022/02/13 08:06:20;;;;;;;12.77;7.72;;;3.60;94.20;;;;;;5004651;28;20397;-63
2022/02/13 08:08:46;;;;;;;10.93;6.75;;;3.70;94.20;;;;;;5013683;28;20168;-62
2022/02/13 08:11:13;;;;;;;11.38;7.57;;;3.70;94.10;;;;;;5002424;28;20072;-62
2022/02/13 08:13:39;;;;;;;11.23;7.38;;;3.70;94.10;;;;;;5010168;28;20037;-63
2022/02/13 08:16:04;;;;;;;11.27;7.78;;;3.80;94.10;;;;;;5012256;28;20030;-63
2022/02/13 08:18:30;;;;;;;13.07;7.22;;;3.80;94.10;;;;;;5013333;28;20401;-62
2022/02/13 08:20:55;;;;;;;12.73;8.50;;;3.80;94.10;;;;;;5004598;28;20030;-61
2022/02/13 08:23:22;;;;;;;12.20;7.97;;;3.90;94.20;;;;;;5006001;28;20022;-62
2022/02/13 08:25:48;;;;;;;11.48;7.18;;;3.90;94.10;;;;;;5005733;28;20099;-62
2022/02/13 08:28:14;;;;;;;10.88;6.57;;;4.00;94.10;;;;;;4993604;28;20066;-61
2022/02/13 08:30:41;;;;;;;11.45;7.40;;;4.00;94.10;;;;;;4999419;28;20458;-61
2022/02/13 08:33:06;;;;;;;10.18;7.07;;;4.10;94.00;;;;;;5001972;28;20033;-62
2022/02/13 08:35:32;;;;;;;12.35;7.35;;;4.10;94.00;;;;;;4997564;28;20117;-62
2022/02/13 08:37:57;;;;;;;11.48;6.82;;;4.20;94.00;;;;;;5009073;28;20122;-61
2022/02/13 08:40:23;;;;;;;10.82;6.70;;;4.20;94.00;;;;;;4996217;28;20054;-61
2022/02/13 08:42:48;;;;;;;12.02;7.22;;;4.20;94.00;;;;;;5013130;28;20034;-61
2022/02/13 08:45:14;;;;;;;10.93;6.60;;;4.30;94.00;;;;;;5009228;28;20076;-62
2022/02/13 08:47:39;;;;;;;11.38;7.18;;;4.40;94.00;;;;;;5002291;28;20382;-62
2022/02/13 08:50:05;;;;;;;10.45;6.78;;;4.40;93.90;;;;;;5003714;28;20486;-61
2022/02/13 08:52:31;;;;;;;11.27;6.65;;;4.50;93.90;;;;;;4999959;28;20042;-61
2022/02/13 08:54:56;;;;;;;9.68;6.25;;;4.50;93.90;;;;;;4992947;28;20083;-62
2022/02/13 08:57:22;;;;;;;12.25;6.93;;;4.60;93.80;;;;;;4993424;28;20077;-62
2022/02/13 08:59:47;;;;;;;10.18;6.63;;;4.60;93.80;;;;;;4998340;28;20431;-62
2022/02/13 09:02:13;;;;;;;10.75;6.15;;;4.70;93.80;;;;;;4996713;28;20034;-62
2022/02/13 09:04:38;;;;;;;11.23;6.00;;;4.70;93.70;;;;;;5000381;28;20401;-63
2022/02/13 09:07:04;;;;;;;14.45;5.85;;;4.80;93.60;;;;;;4995962;28;20033;-62
2022/02/13 09:09:30;;;;;;;8.13;5.30;;;4.90;93.50;;;;;;5005270;28;20026;-63
2022/02/13 09:11:56;;;;;;;9.95;6.80;;;4.80;93.40;;;;;;5007304;28;20065;-61
2022/02/13 09:14:22;;;;;;;9.02;6.00;;;4.90;93.40;;;;;;4993330;28;20071;-62
2022/02/13 09:16:48;;;;;;;10.10;5.82;;;5.00;93.40;;;;;;5002409;28;20029;-62
2022/02/13 09:19:14;;;;;;;9.52;5.50;;;5.00;93.30;;;;;;4996550;28;20022;-62
2022/02/13 09:21:40;;;;;;;8.32;5.70;;;5.10;93.30;;;;;;5000294;28;20055;-62
2022/02/13 09:24:06;;;;;;;11.20;5.60;;;5.10;93.20;;;;;;5008828;28;20057;-62
2022/02/13 09:26:32;;;;;;;9.13;5.30;;;5.20;93.20;;;;;;4997920;28;20041;-62
2022/02/13 09:28:59;;;;;;;9.07;5.60;;;5.30;93.10;;;;;;5002342;28;20120;-63
2022/02/13 09:31:25;;;;;;;10.05;5.72;;;5.40;93.00;;;;;;5000708;28;20030;-63
2022/02/13 09:33:51;;;;;;;9.57;5.75;;;5.40;92.90;;;;;;5014149;28;20071;-62
2022/02/13 09:36:19;;;;;;;10.93;6.28;;;5.50;92.80;;;;;;5002248;28;20030;-63
2022/02/13 09:38:46;;;;;;;9.93;6.18;;;5.50;92.70;;;;;;4992378;28;20034;-62
2022/02/13 09:41:15;;;;;;;12.95;6.32;;;5.50;92.70;;;;;;4999130;28;20029;-62
2022/02/13 09:43:40;;;;;;;11.25;5.72;;;5.60;92.90;;;;;;5006069;28;20038;-61
2022/02/13 09:46:06;;;;;;;9.48;5.30;;;5.70;93.00;;;;;;5001285;28;20045;-61
2022/02/13 09:48:36;;;;;;;8.80;5.20;;;5.70;92.80;;;;;;4994995;28;20026;-62
2022/02/13 09:51:02;;;;;;;8.95;6.00;;;5.80;92.90;;;;;;5009596;28;20141;-61
2022/02/13 09:53:34;;;;;;;10.32;5.78;;;5.80;93.10;;;;;;4994175;28;20034;-62
2022/02/13 09:56:00;;;;;;;9.90;5.43;;;5.90;93.10;;;;;;4993516;28;20053;-61
2022/02/13 09:58:26;;;;;;;12.13;5.78;;;6.00;92.80;;;;;;4994405;28;20118;-61
2022/02/13 10:00:56;;;;;;;9.70;5.53;;;6.10;92.80;;;;;;4996515;28;20129;-62
2022/02/13 10:03:28;;;;;;;9.27;5.47;;;6.10;92.80;;;;;;5007192;28;20030;-63
2022/02/13 10:05:57;;;;;;;9.80;5.10;;;6.20;92.70;;;;;;4994020;28;20501;-64
2022/02/13 10:08:31;;;;;;;7.68;5.28;;;6.30;92.50;;;;;;4997788;28;20025;-62
2022/02/13 10:11:18;;;;;;;10.43;6.65;;;6.40;92.40;;;;;;4999983;28;20500;-64
2022/02/13 10:13:51;;;;;;;10.80;6.18;;;6.40;92.30;;;;;;4996107;28;20037;-63
2022/02/13 10:16:23;;;;;;;8.48;5.07;;;6.40;92.10;;;;;;4995351;28;20030;-64
2022/02/13 10:18:57;;;;;;;7.53;4.90;;;6.50;92.20;;;;;;5000957;28;20038;-64
2022/02/13 10:21:53;;;;;;;9.60;5.57;;;6.50;92.10;;;;;;4993441;28;20030;-63
2022/02/13 10:24:31;;;;;;;10.73;6.15;;;6.50;91.90;;;;;;4994597;28;20487;-64
2022/02/13 10:26:56;;;;;;;9.73;5.68;;;6.60;91.60;;;;;;5001150;28;20033;-64
2022/02/13 10:29:27;;;;;;;8.05;5.20;;;6.60;91.60;;;;;;4999097;28;20112;-63
2022/02/13 10:32:15;;;;;;;8.25;4.90;;;6.70;91.30;;;;;;5017749;28;20022;-64
2022/02/13 10:35:10;;;;;;;8.77;5.20;;;6.70;91.10;;;;;;5013944;28;20033;-63
2022/02/13 10:37:55;;;;;;;8.40;4.85;;;6.70;91.10;;;;;;5013245;28;20092;-63
2022/02/13 10:40:26;;;;;;;8.88;4.82;;;6.80;90.90;;;;;;5002833;28;20023;-64
2022/02/13 10:43:04;;;;;;;6.10;4.28;;;6.80;90.90;;;;;;5006286;28;20030;-64
2022/02/13 10:45:32;;;;;;;8.23;5.05;;;6.80;90.70;;;;;;5006617;28;20034;-63
2022/02/13 10:48:04;;;;;;;8.57;5.15;;;6.90;90.70;;;;;;5017864;28;20504;-63
2022/02/13 10:50:35;;;;;;;9.20;4.55;;;6.90;90.40;;;;;;5001476;28;20500;-63
2022/02/13 10:53:03;;;;;;;7.53;4.75;;;6.90;90.40;;;;;;4996265;28;20382;-63
2022/02/13 10:55:31;;;;;;;8.20;4.38;;;7.00;90.30;;;;;;4997789;28;20505;-63
2022/02/13 10:57:58;;;;;;;9.32;5.10;;;7.00;90.20;;;;;;5015717;28;20030;-63
2022/02/13 11:00:26;;;;;;;11.05;5.18;;;7.10;90.10;;;;;;5008362;28;20034;-62
2022/02/13 11:02:54;;;;;;;8.95;5.05;;;7.10;90.00;;;;;;5006597;28;20642;-63
2022/02/13 11:05:28;;;;;;;7.40;5.07;;;7.10;89.70;;;;;;4998921;28;20042;-63
2022/02/13 11:07:58;;;;;;;9.70;5.00;;;7.10;89.60;;;;;;5002033;28;20034;-64
2022/02/13 11:10:26;;;;;;;7.43;4.65;;;7.10;89.60;;;;;;4995924;28;20122;-63
2022/02/13 11:12:54;;;;;;;7.85;5.22;;;7.20;89.30;;;;;;5000866;28;20434;-62
2022/02/13 11:15:22;;;;;;;8.10;4.95;;;7.20;89.20;;;;;;5003976;28;20457;-63
2022/02/13 11:17:50;;;;;;;9.95;4.65;;;7.30;89.00;;;;;;5007006;28;20571;-64
2022/02/13 11:20:18;;;;;;;8.60;5.10;;;7.30;88.60;;;;;;5003098;28;20093;-62
2022/02/13 11:22:47;;;;;;;9.23;5.00;;;7.30;88.60;;;;;;5005738;28;20025;-62
2022/02/13 11:25:13;;;;;;;8.40;4.78;;;7.40;88.50;;;;;;4996411;28;20048;-63
2022/02/13 11:27:58;;;;;;;9.43;5.00;;;7.40;88.60;;;;;;5008814;28;20542;-63
2022/02/13 11:30:54;;;;;;;7.63;5.28;;;7.50;88.50;;;;;;5011220;28;20026;-63
2022/02/13 11:33:26;;;;;;;9.52;4.72;;;7.50;88.40;;;;;;5001499;28;20496;-62
2022/02/13 11:35:57;;;;;;;8.45;5.10;;;7.60;88.00;;;;;;5009264;28;20042;-62
2022/02/13 11:38:47;;;;;;;7.00;4.70;;;7.60;87.80;;;;;;5007928;28;20473;-62
2022/02/13 11:41:14;;;;;;;8.55;5.03;;;7.70;87.70;;;;;;5000487;28;20065;-62
2022/02/13 11:43:45;;;;;;;7.80;5.00;;;7.70;87.50;;;;;;4997518;28;20512;-63
2022/02/13 11:46:36;;;;;;;9.00;4.43;;;7.80;87.20;;;;;;5005650;28;20046;-62
2022/02/13 11:49:03;;;;;;;6.40;4.22;;;7.80;87.20;;;;;;5001507;28;20532;-62
2022/02/13 11:52:00;;;;;;;8.63;4.43;;;7.90;87.20;;;;;;4998003;28;20035;-63
2022/02/13 11:54:38;;;;;;;8.05;4.40;;;8.00;86.70;;;;;;4991929;28;20494;-63
2022/02/13 11:57:09;;;;;;;8.75;4.15;;;8.00;86.00;;;;;;5011416;28;20037;-63
2022/02/13 11:59:57;;;;;;;8.68;5.03;;;8.10;85.50;;;;;;5010609;28;20508;-63
2022/02/13 12:02:35;;;;;;;10.02;4.65;;;8.10;85.20;;;;;;4994983;28;20034;-63
2022/02/13 12:05:10;;;;;;;6.22;3.70;;;8.20;85.00;;;;;;5019633;28;20045;-63
2022/02/13 12:07:54;;;;;;;8.25;4.05;;;8.20;84.60;;;;;;5007427;28;20346;-64
2022/02/13 12:10:36;;;;;;;6.33;4.30;;;8.30;84.40;;;;;;4995179;28;20034;-63
2022/02/13 12:13:12;;;;;;;9.18;4.38;;;8.40;84.20;;;;;;5009649;28;20018;-63
2022/02/13 12:15:41;;;;;;;6.47;3.70;;;8.40;83.80;;;;;;5006575;28;20124;-64
2022/02/13 12:18:14;;;;;;;5.97;3.75;;;8.40;83.50;;;;;;4998739;28;20401;-62
2022/02/13 12:20:41;;;;;;;5.55;4.10;;;8.50;83.10;;;;;;5002443;28;20033;-63
2022/02/13 12:23:18;;;;;;;5.18;3.95;;;8.50;83.50;;;;;;5005598;28;20038;-63
2022/02/13 12:25:46;;;;;;;5.97;4.30;;;8.50;82.50;;;;;;5015993;28;20038;-63
2022/02/13 12:28:13;;;;;;;8.95;5.05;;;8.40;82.30;;;;;;5006941;28;20038;-64
2022/02/13 12:30:50;;;;;;;5.65;3.80;;;8.50;82.00;;;;;;5011413;28;20053;-64
2022/02/13 12:33:18;;;;;;;6.70;4.13;;;8.60;81.90;;;;;;4996008;28;20246;-64
2022/02/13 12:35:45;;;;;;;7.47;3.80;;;8.60;81.80;;;;;;4992950;28;20029;-64
2022/02/13 12:38:12;;;;;;;6.50;3.78;;;8.60;81.40;;;;;;5010037;28;20052;-64
2022/02/13 12:40:43;;;;;;;8.70;4.72;;;8.60;81.30;;;;;;4999033;28;20026;-64
2022/02/13 12:43:14;;;;;;;6.30;4.00;;;8.70;81.30;;;;;;5007014;28;20038;-63
2022/02/13 12:45:41;;;;;;;6.78;4.35;;;8.70;81.10;;;;;;5006352;28;20095;-64
2022/02/13 12:48:15;;;;;;;8.07;4.18;;;8.70;80.90;;;;;;4999014;28;20026;-64
2022/02/13 12:50:47;;;;;;;7.30;4.63;;;8.70;80.10;;;;;;5001707;28;20065;-64